sensor_id;sensor_type;location;lat;lon;timestamp;temperature;humidity
20171;DHT22;10245;51.344;6.620;2023-04-03T00:00:28;1.50;89.80
20171;DHT22;10245;51.344;6.620;2023-04-03T00:02:53;1.40;89.80
20171;DHT22;10245;51.344;6.620;2023-04-03T00:05:16;1.40;90.20
20171;DHT22;10245;51.344;6.620;2023-04-03T00:07:40;1.30;90.00
20171;DHT22;10245;51.344;6.620;2023-04-03T00:10:04;1.40;90.10
20171;DHT22;10245;51.344;6.620;2023-04-03T00:12:28;1.30;90.20
20171;DHT22;10245;51.344;6.620;2023-04-03T00:14:51;1.30;90.20
20171;DHT22;10245;51.344;6.620;2023-04-03T00:17:16;1.30;90.20
20171;DHT22;10245;51.344;6.620;2023-04-03T00:19:39;1.20;90.20
20171;DHT22;10245;51.344;6.620;2023-04-03T00:22:03;1.20;90.20
20171;DHT22;10245;51.344;6.620;2023-04-03T00:24:26;1.20;90.30
20171;DHT22;10245;51.344;6.620;2023-04-03T00:26:49;1.20;90.10
20171;DHT22;10245;51.344;6.620;2023-04-03T00:29:13;1.30;90.10
20171;DHT22;10245;51.344;6.620;2023-04-03T00:31:37;1.20;90.10
20171;DHT22;10245;51.344;6.620;2023-04-03T00:34:02;1.10;90.20
20171;DHT22;10245;51.344;6.620;2023-04-03T00:36:25;1.10;90.20
20171;DHT22;10245;51.344;6.620;2023-04-03T00:38:48;1.10;90.20
20171;DHT22;10245;51.344;6.620;2023-04-03T00:41:12;1.10;90.20
20171;DHT22;10245;51.344;6.620;2023-04-03T00:43:35;1.00;90.30
20171;DHT22;10245;51.344;6.620;2023-04-03T00:45:59;1.00;90.20
20171;DHT22;10245;51.344;6.620;2023-04-03T00:48:27;1.00;90.20
20171;DHT22;10245;51.344;6.620;2023-04-03T00:50:54;1.00;90.30
20171;DHT22;10245;51.344;6.620;2023-04-03T00:53:20;1.00;90.40
20171;DHT22;10245;51.344;6.620;2023-04-03T00:55:47;1.00;90.50
20171;DHT22;10245;51.344;6.620;2023-04-03T00:58:12;1.00;90.60
20171;DHT22;10245;51.344;6.620;2023-04-03T01:00:37;1.00;90.50
20171;DHT22;10245;51.344;6.620;2023-04-03T01:03:03;1.00;90.50
20171;DHT22;10245;51.344;6.620;2023-04-03T01:05:27;1.00;90.40
20171;DHT22;10245;51.344;6.620;2023-04-03T01:07:52;0.90;90.40
20171;DHT22;10245;51.344;6.620;2023-04-03T01:10:16;0.90;90.40
20171;DHT22;10245;51.344;6.620;2023-04-03T01:12:44;0.80;90.40
20171;DHT22;10245;51.344;6.620;2023-04-03T01:15:11;0.70;90.10
20171;DHT22;10245;51.344;6.620;2023-04-03T01:17:38;0.80;90.50
20171;DHT22;10245;51.344;6.620;2023-04-03T01:20:44;0.80;90.50
20171;DHT22;10245;51.344;6.620;2023-04-03T01:23:48;0.80;90.70
20171;DHT22;10245;51.344;6.620;2023-04-03T01:26:17;0.80;90.50
20171;DHT22;10245;51.344;6.620;2023-04-03T01:28:41;0.70;90.50
20171;DHT22;10245;51.344;6.620;2023-04-03T01:31:10;0.70;90.40
20171;DHT22;10245;51.344;6.620;2023-04-03T01:33:40;0.70;90.60
20171;DHT22;10245;51.344;6.620;2023-04-03T01:36:05;0.60;90.60
20171;DHT22;10245;51.344;6.620;2023-04-03T01:38:29;0.70;90.60
20171;DHT22;10245;51.344;6.620;2023-04-03T01:40:53;0.60;90.60
20171;DHT22;10245;51.344;6.620;2023-04-03T01:43:16;0.70;90.70
20171;DHT22;10245;51.344;6.620;2023-04-03T01:45:40;0.70;90.90
20171;DHT22;10245;51.344;6.620;2023-04-03T01:48:04;0.70;90.80
20171;DHT22;10245;51.344;6.620;2023-04-03T01:50:28;0.70;90.80
20171;DHT22;10245;51.344;6.620;2023-04-03T01:52:52;0.60;90.80
20171;DHT22;10245;51.344;6.620;2023-04-03T01:55:15;0.60;90.80
20171;DHT22;10245;51.344;6.620;2023-04-03T01:57:39;0.50;90.60
20171;DHT22;10245;51.344;6.620;2023-04-03T02:00:03;0.60;91.00
20171;DHT22;10245;51.344;6.620;2023-04-03T02:02:33;0.70;91.20
20171;DHT22;10245;51.344;6.620;2023-04-03T02:04:57;0.90;91.30
20171;DHT22;10245;51.344;6.620;2023-04-03T02:07:21;1.00;91.10
20171;DHT22;10245;51.344;6.620;2023-04-03T02:09:45;1.10;91.10
20171;DHT22;10245;51.344;6.620;2023-04-03T02:12:08;1.30;90.90
20171;DHT22;10245;51.344;6.620;2023-04-03T02:14:31;1.60;90.70
20171;DHT22;10245;51.344;6.620;2023-04-03T02:16:55;1.70;90.20
20171;DHT22;10245;51.344;6.620;2023-04-03T02:19:19;2.00;89.70
20171;DHT22;10245;51.344;6.620;2023-04-03T02:21:42;2.10;88.70
20171;DHT22;10245;51.344;6.620;2023-04-03T02:24:07;2.00;88.00
20171;DHT22;10245;51.344;6.620;2023-04-03T02:26:31;2.10;87.70
20171;DHT22;10245;51.344;6.620;2023-04-03T02:28:54;2.20;86.80
20171;DHT22;10245;51.344;6.620;2023-04-03T02:31:17;2.30;86.50
20171;DHT22;10245;51.344;6.620;2023-04-03T02:33:41;2.30;86.50
20171;DHT22;10245;51.344;6.620;2023-04-03T02:36:08;2.30;86.30
20171;DHT22;10245;51.344;6.620;2023-04-03T02:38:35;2.30;86.30
20171;DHT22;10245;51.344;6.620;2023-04-03T02:41:02;2.40;85.80
20171;DHT22;10245;51.344;6.620;2023-04-03T02:43:26;2.50;85.00
20171;DHT22;10245;51.344;6.620;2023-04-03T02:45:50;2.50;84.70
20171;DHT22;10245;51.344;6.620;2023-04-03T02:48:13;2.50;84.60
20171;DHT22;10245;51.344;6.620;2023-04-03T02:50:38;2.50;84.30
20171;DHT22;10245;51.344;6.620;2023-04-03T02:53:01;2.50;83.90
20171;DHT22;10245;51.344;6.620;2023-04-03T02:55:25;2.50;83.90
20171;DHT22;10245;51.344;6.620;2023-04-03T02:57:51;2.50;83.70
20171;DHT22;10245;51.344;6.620;2023-04-03T03:00:15;2.60;83.20
20171;DHT22;10245;51.344;6.620;2023-04-03T03:02:38;2.60;82.90
20171;DHT22;10245;51.344;6.620;2023-04-03T03:05:02;2.60;82.80
20171;DHT22;10245;51.344;6.620;2023-04-03T03:07:26;2.50;82.70
20171;DHT22;10245;51.344;6.620;2023-04-03T03:09:49;2.50;82.80
20171;DHT22;10245;51.344;6.620;2023-04-03T03:12:13;2.50;83.30
20171;DHT22;10245;51.344;6.620;2023-04-03T03:14:37;2.40;83.90
20171;DHT22;10245;51.344;6.620;2023-04-03T03:17:03;2.50;83.70
20171;DHT22;10245;51.344;6.620;2023-04-03T03:19:26;2.50;83.40
20171;DHT22;10245;51.344;6.620;2023-04-03T03:21:49;2.50;83.20
20171;DHT22;10245;51.344;6.620;2023-04-03T03:24:13;2.50;83.50
20171;DHT22;10245;51.344;6.620;2023-04-03T03:26:37;2.50;83.20
20171;DHT22;10245;51.344;6.620;2023-04-03T03:29:01;2.50;83.20
20171;DHT22;10245;51.344;6.620;2023-04-03T03:31:26;2.40;83.30
20171;DHT22;10245;51.344;6.620;2023-04-03T03:33:49;2.40;83.60
20171;DHT22;10245;51.344;6.620;2023-04-03T03:36:13;2.40;83.20
20171;DHT22;10245;51.344;6.620;2023-04-03T03:38:37;2.50;82.80
20171;DHT22;10245;51.344;6.620;2023-04-03T03:41:01;2.50;82.70
20171;DHT22;10245;51.344;6.620;2023-04-03T03:43:27;2.40;82.80
20171;DHT22;10245;51.344;6.620;2023-04-03T03:45:51;2.40;82.90
20171;DHT22;10245;51.344;6.620;2023-04-03T03:48:18;2.40;83.60
20171;DHT22;10245;51.344;6.620;2023-04-03T03:50:42;2.40;83.00
20171;DHT22;10245;51.344;6.620;2023-04-03T03:53:06;2.50;82.50
20171;DHT22;10245;51.344;6.620;2023-04-03T03:55:30;2.40;82.60
20171;DHT22;10245;51.344;6.620;2023-04-03T03:57:54;2.40;82.60
20171;DHT22;10245;51.344;6.620;2023-04-03T04:00:17;2.40;82.90
20171;DHT22;10245;51.344;6.620;2023-04-03T04:02:47;2.30;83.10
20171;DHT22;10245;51.344;6.620;2023-04-03T04:05:16;2.30;83.00
20171;DHT22;10245;51.344;6.620;2023-04-03T04:07:39;2.30;83.20
20171;DHT22;10245;51.344;6.620;2023-04-03T04:10:04;2.30;83.10
20171;DHT22;10245;51.344;6.620;2023-04-03T04:12:28;2.30;83.30
20171;DHT22;10245;51.344;6.620;2023-04-03T04:14:52;2.20;83.10
20171;DHT22;10245;51.344;6.620;2023-04-03T04:17:15;2.20;83.00
20171;DHT22;10245;51.344;6.620;2023-04-03T04:19:39;2.20;83.20
20171;DHT22;10245;51.344;6.620;2023-04-03T04:22:04;2.20;83.10
20171;DHT22;10245;51.344;6.620;2023-04-03T04:24:28;2.20;83.00
20171;DHT22;10245;51.344;6.620;2023-04-03T04:26:51;2.20;83.20
20171;DHT22;10245;51.344;6.620;2023-04-03T04:29:16;2.20;83.00
20171;DHT22;10245;51.344;6.620;2023-04-03T04:31:42;2.10;83.00
20171;DHT22;10245;51.344;6.620;2023-04-03T04:34:06;2.10;83.10
20171;DHT22;10245;51.344;6.620;2023-04-03T04:36:31;2.10;83.20
20171;DHT22;10245;51.344;6.620;2023-04-03T04:38:56;2.10;83.10
20171;DHT22;10245;51.344;6.620;2023-04-03T04:41:21;2.10;82.50
20171;DHT22;10245;51.344;6.620;2023-04-03T04:43:46;2.10;82.40
20171;DHT22;10245;51.344;6.620;2023-04-03T04:46:10;2.10;82.60
20171;DHT22;10245;51.344;6.620;2023-04-03T04:48:39;2.10;83.10
20171;DHT22;10245;51.344;6.620;2023-04-03T04:51:04;2.00;82.90
20171;DHT22;10245;51.344;6.620;2023-04-03T04:53:30;2.00;83.10
20171;DHT22;10245;51.344;6.620;2023-04-03T04:55:55;2.00;83.30
20171;DHT22;10245;51.344;6.620;2023-04-03T04:58:19;2.00;83.30
20171;DHT22;10245;51.344;6.620;2023-04-03T05:00:43;2.00;83.00
20171;DHT22;10245;51.344;6.620;2023-04-03T05:03:06;2.00;83.10
20171;DHT22;10245;51.344;6.620;2023-04-03T05:05:30;2.00;83.20
20171;DHT22;10245;51.344;6.620;2023-04-03T05:07:53;1.90;83.50
20171;DHT22;10245;51.344;6.620;2023-04-03T05:10:17;1.90;83.50
20171;DHT22;10245;51.344;6.620;2023-04-03T05:12:42;2.00;83.10
20171;DHT22;10245;51.344;6.620;2023-04-03T05:15:07;1.90;83.50
20171;DHT22;10245;51.344;6.620;2023-04-03T05:17:31;1.90;83.60
20171;DHT22;10245;51.344;6.620;2023-04-03T05:19:56;1.90;83.60
20171;DHT22;10245;51.344;6.620;2023-04-03T05:22:21;1.90;83.50
20171;DHT22;10245;51.344;6.620;2023-04-03T05:24:47;2.00;83.60
20171;DHT22;10245;51.344;6.620;2023-04-03T05:27:11;1.90;83.40
20171;DHT22;10245;51.344;6.620;2023-04-03T05:29:40;1.90;83.40
20171;DHT22;10245;51.344;6.620;2023-04-03T05:32:10;1.90;83.50
20171;DHT22;10245;51.344;6.620;2023-04-03T05:34:34;1.90;83.60
20171;DHT22;10245;51.344;6.620;2023-04-03T05:36:58;1.90;84.00
20171;DHT22;10245;51.344;6.620;2023-04-03T05:39:22;1.90;84.10
20171;DHT22;10245;51.344;6.620;2023-04-03T05:41:46;1.80;84.20
20171;DHT22;10245;51.344;6.620;2023-04-03T05:44:09;1.80;83.90
20171;DHT22;10245;51.344;6.620;2023-04-03T05:46:35;1.90;83.80
20171;DHT22;10245;51.344;6.620;2023-04-03T05:49:01;1.90;84.00
20171;DHT22;10245;51.344;6.620;2023-04-03T05:51:31;2.00;83.60
20171;DHT22;10245;51.344;6.620;2023-04-03T05:54:10;2.00;83.40
20171;DHT22;10245;51.344;6.620;2023-04-03T05:56:37;2.00;83.00
20171;DHT22;10245;51.344;6.620;2023-04-03T05:59:00;2.00;83.20
20171;DHT22;10245;51.344;6.620;2023-04-03T06:01:24;2.00;83.20
20171;DHT22;10245;51.344;6.620;2023-04-03T06:03:49;2.00;83.10
20171;DHT22;10245;51.344;6.620;2023-04-03T06:06:13;2.10;83.00
20171;DHT22;10245;51.344;6.620;2023-04-03T06:08:37;2.10;82.80
20171;DHT22;10245;51.344;6.620;2023-04-03T06:11:01;2.00;83.00
20171;DHT22;10245;51.344;6.620;2023-04-03T06:13:25;2.10;82.80
20171;DHT22;10245;51.344;6.620;2023-04-03T06:15:48;2.10;82.70
20171;DHT22;10245;51.344;6.620;2023-04-03T06:18:12;2.20;82.60
20171;DHT22;10245;51.344;6.620;2023-04-03T06:20:37;2.20;82.20
20171;DHT22;10245;51.344;6.620;2023-04-03T06:23:01;2.30;82.30
20171;DHT22;10245;51.344;6.620;2023-04-03T06:25:24;2.30;82.30
20171;DHT22;10245;51.344;6.620;2023-04-03T06:27:48;2.30;82.30
20171;DHT22;10245;51.344;6.620;2023-04-03T06:30:12;2.50;81.80
20171;DHT22;10245;51.344;6.620;2023-04-03T06:32:35;2.60;81.00
20171;DHT22;10245;51.344;6.620;2023-04-03T06:34:59;2.80;80.90
20171;DHT22;10245;51.344;6.620;2023-04-03T06:37:24;2.90;80.40
20171;DHT22;10245;51.344;6.620;2023-04-03T06:39:50;3.00;79.80
20171;DHT22;10245;51.344;6.620;2023-04-03T06:42:13;3.10;79.60
20171;DHT22;10245;51.344;6.620;2023-04-03T06:44:52;3.20;79.60
20171;DHT22;10245;51.344;6.620;2023-04-03T06:47:16;3.30;79.20
20171;DHT22;10245;51.344;6.620;2023-04-03T06:49:40;3.50;79.40
20171;DHT22;10245;51.344;6.620;2023-04-03T06:52:04;3.60;79.30
20171;DHT22;10245;51.344;6.620;2023-04-03T06:54:29;3.70;80.10
20171;DHT22;10245;51.344;6.620;2023-04-03T06:56:53;3.70;78.80
20171;DHT22;10245;51.344;6.620;2023-04-03T06:59:17;4.00;78.50
20171;DHT22;10245;51.344;6.620;2023-04-03T07:01:41;4.10;78.20
20171;DHT22;10245;51.344;6.620;2023-04-03T07:04:05;4.30;77.20
20171;DHT22;10245;51.344;6.620;2023-04-03T07:06:28;4.20;77.10
20171;DHT22;10245;51.344;6.620;2023-04-03T07:08:53;4.20;75.10
20171;DHT22;10245;51.344;6.620;2023-04-03T07:11:18;4.50;76.60
20171;DHT22;10245;51.344;6.620;2023-04-03T07:13:42;4.50;76.10
20171;DHT22;10245;51.344;6.620;2023-04-03T07:16:06;4.50;77.10
20171;DHT22;10245;51.344;6.620;2023-04-03T07:18:30;4.50;74.70
20171;DHT22;10245;51.344;6.620;2023-04-03T07:20:54;4.60;75.90
20171;DHT22;10245;51.344;6.620;2023-04-03T07:23:17;4.90;75.30
20171;DHT22;10245;51.344;6.620;2023-04-03T07:25:43;4.50;75.70
20171;DHT22;10245;51.344;6.620;2023-04-03T07:28:08;5.00;73.50
20171;DHT22;10245;51.344;6.620;2023-04-03T07:30:31;5.00;73.20
20171;DHT22;10245;51.344;6.620;2023-04-03T07:32:54;5.00;72.20
20171;DHT22;10245;51.344;6.620;2023-04-03T07:35:18;5.20;73.50
20171;DHT22;10245;51.344;6.620;2023-04-03T07:37:42;5.50;73.10
20171;DHT22;10245;51.344;6.620;2023-04-03T07:40:07;5.40;71.50
20171;DHT22;10245;51.344;6.620;2023-04-03T07:42:31;5.50;74.10
20171;DHT22;10245;51.344;6.620;2023-04-03T07:44:56;5.50;71.00
20171;DHT22;10245;51.344;6.620;2023-04-03T07:47:20;5.70;71.70
20171;DHT22;10245;51.344;6.620;2023-04-03T07:49:43;5.80;71.70
20171;DHT22;10245;51.344;6.620;2023-04-03T07:52:07;5.80;72.30
20171;DHT22;10245;51.344;6.620;2023-04-03T07:54:31;5.70;68.20
20171;DHT22;10245;51.344;6.620;2023-04-03T07:56:55;5.90;68.30
20171;DHT22;10245;51.344;6.620;2023-04-03T07:59:18;5.90;67.90
20171;DHT22;10245;51.344;6.620;2023-04-03T08:01:44;6.00;69.30
20171;DHT22;10245;51.344;6.620;2023-04-03T08:04:07;6.30;69.70
20171;DHT22;10245;51.344;6.620;2023-04-03T08:06:31;6.00;67.10
20171;DHT22;10245;51.344;6.620;2023-04-03T08:09:07;6.10;69.60
20171;DHT22;10245;51.344;6.620;2023-04-03T08:11:31;6.40;66.80
20171;DHT22;10245;51.344;6.620;2023-04-03T08:13:54;6.50;65.60
20171;DHT22;10245;51.344;6.620;2023-04-03T08:16:20;6.50;66.90
20171;DHT22;10245;51.344;6.620;2023-04-03T08:18:47;6.60;66.10
20171;DHT22;10245;51.344;6.620;2023-04-03T08:21:12;6.60;65.80
20171;DHT22;10245;51.344;6.620;2023-04-03T08:23:35;6.60;65.00
20171;DHT22;10245;51.344;6.620;2023-04-03T08:25:59;6.80;65.40
20171;DHT22;10245;51.344;6.620;2023-04-03T08:28:28;7.20;64.40
20171;DHT22;10245;51.344;6.620;2023-04-03T08:30:51;6.70;60.30
20171;DHT22;10245;51.344;6.620;2023-04-03T08:33:16;6.80;61.10
20171;DHT22;10245;51.344;6.620;2023-04-03T08:35:41;6.90;61.10
20171;DHT22;10245;51.344;6.620;2023-04-03T08:38:05;6.70;59.40
20171;DHT22;10245;51.344;6.620;2023-04-03T08:40:28;7.00;60.60
20171;DHT22;10245;51.344;6.620;2023-04-03T08:43:01;7.10;57.90
20171;DHT22;10245;51.344;6.620;2023-04-03T08:45:41;7.40;57.60
20171;DHT22;10245;51.344;6.620;2023-04-03T08:48:08;7.20;59.50
20171;DHT22;10245;51.344;6.620;2023-04-03T08:50:40;7.70;57.70
20171;DHT22;10245;51.344;6.620;2023-04-03T08:53:06;7.50;57.40
20171;DHT22;10245;51.344;6.620;2023-04-03T08:55:40;7.60;59.90
20171;DHT22;10245;51.344;6.620;2023-04-03T08:58:09;7.60;54.50
20171;DHT22;10245;51.344;6.620;2023-04-03T09:00:38;7.50;54.10
20171;DHT22;10245;51.344;6.620;2023-04-03T09:03:12;7.40;52.70
20171;DHT22;10245;51.344;6.620;2023-04-03T09:05:43;7.80;50.90
20171;DHT22;10245;51.344;6.620;2023-04-03T09:08:18;7.80;49.80
20171;DHT22;10245;51.344;6.620;2023-04-03T09:10:45;7.70;48.40
20171;DHT22;10245;51.344;6.620;2023-04-03T09:13:13;8.00;50.80
20171;DHT22;10245;51.344;6.620;2023-04-03T09:15:44;8.10;51.10
20171;DHT22;10245;51.344;6.620;2023-04-03T09:18:15;8.40;48.40
20171;DHT22;10245;51.344;6.620;2023-04-03T09:20:47;8.50;50.90
20171;DHT22;10245;51.344;6.620;2023-04-03T09:23:22;8.40;49.40
20171;DHT22;10245;51.344;6.620;2023-04-03T09:25:51;8.20;48.10
20171;DHT22;10245;51.344;6.620;2023-04-03T09:28:16;8.50;49.30
20171;DHT22;10245;51.344;6.620;2023-04-03T09:30:40;8.70;45.00
20171;DHT22;10245;51.344;6.620;2023-04-03T09:33:04;8.80;49.70
20171;DHT22;10245;51.344;6.620;2023-04-03T09:35:30;8.80;47.70
20171;DHT22;10245;51.344;6.620;2023-04-03T09:38:19;8.40;46.50
20171;DHT22;10245;51.344;6.620;2023-04-03T09:40:45;8.50;46.30
20171;DHT22;10245;51.344;6.620;2023-04-03T09:43:21;8.60;45.70
20171;DHT22;10245;51.344;6.620;2023-04-03T09:45:50;8.50;41.20
20171;DHT22;10245;51.344;6.620;2023-04-03T09:48:17;8.40;45.00
20171;DHT22;10245;51.344;6.620;2023-04-03T09:51:00;8.60;42.40
20171;DHT22;10245;51.344;6.620;2023-04-03T09:53:30;8.70;45.80
20171;DHT22;10245;51.344;6.620;2023-04-03T09:55:55;8.50;47.20
20171;DHT22;10245;51.344;6.620;2023-04-03T09:58:27;8.40;39.80
20171;DHT22;10245;51.344;6.620;2023-04-03T10:01:23;8.40;40.90
20171;DHT22;10245;51.344;6.620;2023-04-03T10:04:04;8.70;38.50
20171;DHT22;10245;51.344;6.620;2023-04-03T10:06:31;8.30;40.10
20171;DHT22;10245;51.344;6.620;2023-04-03T10:09:00;8.90;43.30
20171;DHT22;10245;51.344;6.620;2023-04-03T10:11:26;8.90;38.00
20171;DHT22;10245;51.344;6.620;2023-04-03T10:13:54;8.50;39.00
20171;DHT22;10245;51.344;6.620;2023-04-03T10:16:27;8.40;37.70
20171;DHT22;10245;51.344;6.620;2023-04-03T10:19:16;8.50;39.50
20171;DHT22;10245;51.344;6.620;2023-04-03T10:21:50;8.60;42.40
20171;DHT22;10245;51.344;6.620;2023-04-03T10:24:23;8.80;37.80
20171;DHT22;10245;51.344;6.620;2023-04-03T10:26:55;8.80;39.10
20171;DHT22;10245;51.344;6.620;2023-04-03T10:29:31;9.20;43.20
20171;DHT22;10245;51.344;6.620;2023-04-03T10:32:12;9.10;37.50
20171;DHT22;10245;51.344;6.620;2023-04-03T10:34:46;9.00;41.60
20171;DHT22;10245;51.344;6.620;2023-04-03T10:37:29;9.00;38.90
20171;DHT22;10245;51.344;6.620;2023-04-03T10:40:04;8.90;39.90
20171;DHT22;10245;51.344;6.620;2023-04-03T10:42:38;8.40;38.90
20171;DHT22;10245;51.344;6.620;2023-04-03T10:45:20;8.50;40.90
20171;DHT22;10245;51.344;6.620;2023-04-03T10:47:51;8.70;43.80
20171;DHT22;10245;51.344;6.620;2023-04-03T10:50:36;9.00;41.10
20171;DHT22;10245;51.344;6.620;2023-04-03T10:53:07;9.20;45.20
20171;DHT22;10245;51.344;6.620;2023-04-03T10:55:42;9.40;42.00
20171;DHT22;10245;51.344;6.620;2023-04-03T10:58:18;9.20;43.60
20171;DHT22;10245;51.344;6.620;2023-04-03T11:00:47;9.30;41.40
20171;DHT22;10245;51.344;6.620;2023-04-03T11:03:14;9.50;44.70
20171;DHT22;10245;51.344;6.620;2023-04-03T11:05:42;9.60;43.50
20171;DHT22;10245;51.344;6.620;2023-04-03T11:08:12;9.70;40.70
20171;DHT22;10245;51.344;6.620;2023-04-03T11:10:43;10.20;41.80
20171;DHT22;10245;51.344;6.620;2023-04-03T11:13:12;9.30;40.10
20171;DHT22;10245;51.344;6.620;2023-04-03T11:15:37;9.50;42.80
20171;DHT22;10245;51.344;6.620;2023-04-03T11:18:05;9.40;40.10
20171;DHT22;10245;51.344;6.620;2023-04-03T11:20:33;9.40;40.30
20171;DHT22;10245;51.344;6.620;2023-04-03T11:23:02;9.50;41.30
20171;DHT22;10245;51.344;6.620;2023-04-03T11:25:30;9.90;41.50
20171;DHT22;10245;51.344;6.620;2023-04-03T11:27:58;9.70;40.70
20171;DHT22;10245;51.344;6.620;2023-04-03T11:30:27;9.70;42.60
20171;DHT22;10245;51.344;6.620;2023-04-03T11:33:09;10.10;39.60
20171;DHT22;10245;51.344;6.620;2023-04-03T11:35:43;10.00;39.40
20171;DHT22;10245;51.344;6.620;2023-04-03T11:38:15;10.30;40.90
20171;DHT22;10245;51.344;6.620;2023-04-03T11:40:44;10.20;39.60
20171;DHT22;10245;51.344;6.620;2023-04-03T11:43:22;9.70;40.30
20171;DHT22;10245;51.344;6.620;2023-04-03T11:45:53;10.00;43.30
20171;DHT22;10245;51.344;6.620;2023-04-03T11:48:44;9.50;41.00
20171;DHT22;10245;51.344;6.620;2023-04-03T11:51:45;10.00;42.80
20171;DHT22;10245;51.344;6.620;2023-04-03T11:54:42;10.10;42.80
20171;DHT22;10245;51.344;6.620;2023-04-03T12:01:00;9.90;42.10
20171;DHT22;10245;51.344;6.620;2023-04-03T12:10:13;10.00;41.00
20171;DHT22;10245;51.344;6.620;2023-04-03T12:12:57;10.00;41.50
20171;DHT22;10245;51.344;6.620;2023-04-03T12:15:41;9.70;43.00
20171;DHT22;10245;51.344;6.620;2023-04-03T12:18:57;10.30;45.50
20171;DHT22;10245;51.344;6.620;2023-04-03T12:24:33;10.20;42.30
20171;DHT22;10245;51.344;6.620;2023-04-03T12:27:04;10.60;44.30
20171;DHT22;10245;51.344;6.620;2023-04-03T12:29:36;10.60;42.10
20171;DHT22;10245;51.344;6.620;2023-04-03T12:32:12;10.20;41.70
20171;DHT22;10245;51.344;6.620;2023-04-03T12:35:01;10.60;43.50
20171;DHT22;10245;51.344;6.620;2023-04-03T12:37:43;10.40;40.80
20171;DHT22;10245;51.344;6.620;2023-04-03T12:40:21;10.00;41.60
20171;DHT22;10245;51.344;6.620;2023-04-03T12:43:09;10.30;43.30
20171;DHT22;10245;51.344;6.620;2023-04-03T12:45:44;11.00;45.00
20171;DHT22;10245;51.344;6.620;2023-04-03T12:48:14;10.50;39.80
20171;DHT22;10245;51.344;6.620;2023-04-03T12:50:40;10.50;39.70
20171;DHT22;10245;51.344;6.620;2023-04-03T12:53:06;10.80;42.20
20171;DHT22;10245;51.344;6.620;2023-04-03T12:55:35;11.00;43.50
20171;DHT22;10245;51.344;6.620;2023-04-03T12:58:13;11.00;40.40
20171;DHT22;10245;51.344;6.620;2023-04-03T13:00:38;10.30;38.40
20171;DHT22;10245;51.344;6.620;2023-04-03T13:03:03;10.10;39.30
20171;DHT22;10245;51.344;6.620;2023-04-03T13:05:28;10.30;41.30
20171;DHT22;10245;51.344;6.620;2023-04-03T13:07:59;10.80;42.00
20171;DHT22;10245;51.344;6.620;2023-04-03T13:10:23;10.60;42.40
20171;DHT22;10245;51.344;6.620;2023-04-03T13:12:49;10.50;39.90
20171;DHT22;10245;51.344;6.620;2023-04-03T13:15:16;10.80;40.70
20171;DHT22;10245;51.344;6.620;2023-04-03T13:17:42;10.80;40.20
20171;DHT22;10245;51.344;6.620;2023-04-03T13:20:14;11.00;42.40
20171;DHT22;10245;51.344;6.620;2023-04-03T13:22:40;10.80;40.80
20171;DHT22;10245;51.344;6.620;2023-04-03T13:25:14;10.90;41.20
20171;DHT22;10245;51.344;6.620;2023-04-03T13:27:39;10.80;40.00
20171;DHT22;10245;51.344;6.620;2023-04-03T13:30:17;10.80;43.70
20171;DHT22;10245;51.344;6.620;2023-04-03T13:32:45;10.60;40.10
20171;DHT22;10245;51.344;6.620;2023-04-03T13:35:24;10.40;40.50
20171;DHT22;10245;51.344;6.620;2023-04-03T13:37:54;10.50;40.60
20171;DHT22;10245;51.344;6.620;2023-04-03T13:40:19;10.70;41.60
20171;DHT22;10245;51.344;6.620;2023-04-03T13:42:43;10.90;43.00
20171;DHT22;10245;51.344;6.620;2023-04-03T13:45:11;10.60;43.30
20171;DHT22;10245;51.344;6.620;2023-04-03T13:47:43;10.80;41.00
20171;DHT22;10245;51.344;6.620;2023-04-03T13:50:15;10.80;41.20
20171;DHT22;10245;51.344;6.620;2023-04-03T13:52:43;10.20;39.20
20171;DHT22;10245;51.344;6.620;2023-04-03T13:55:20;10.30;40.00
20171;DHT22;10245;51.344;6.620;2023-04-03T13:57:54;10.60;39.70
20171;DHT22;10245;51.344;6.620;2023-04-03T14:00:31;11.00;39.20
20171;DHT22;10245;51.344;6.620;2023-04-03T14:02:59;10.70;40.90
20171;DHT22;10245;51.344;6.620;2023-04-03T14:05:22;10.90;41.90
20171;DHT22;10245;51.344;6.620;2023-04-03T14:07:47;10.90;42.60
20171;DHT22;10245;51.344;6.620;2023-04-03T14:10:10;10.40;42.60
20171;DHT22;10245;51.344;6.620;2023-04-03T14:12:37;10.20;40.20
20171;DHT22;10245;51.344;6.620;2023-04-03T14:15:06;9.90;39.70
20171;DHT22;10245;51.344;6.620;2023-04-03T14:17:38;10.20;44.60
20171;DHT22;10245;51.344;6.620;2023-04-03T14:20:02;10.50;40.00
20171;DHT22;10245;51.344;6.620;2023-04-03T14:22:28;10.60;40.40
20171;DHT22;10245;51.344;6.620;2023-04-03T14:24:53;10.00;39.40
20171;DHT22;10245;51.344;6.620;2023-04-03T14:27:19;9.80;39.60
20171;DHT22;10245;51.344;6.620;2023-04-03T14:29:44;10.30;40.20
20171;DHT22;10245;51.344;6.620;2023-04-03T14:32:11;10.40;41.10
20171;DHT22;10245;51.344;6.620;2023-04-03T14:34:36;10.50;40.00
20171;DHT22;10245;51.344;6.620;2023-04-03T14:36:59;10.40;41.90
20171;DHT22;10245;51.344;6.620;2023-04-03T14:39:22;10.50;42.10
20171;DHT22;10245;51.344;6.620;2023-04-03T14:41:46;10.70;39.00
20171;DHT22;10245;51.344;6.620;2023-04-03T14:44:10;11.00;40.60
20171;DHT22;10245;51.344;6.620;2023-04-03T14:46:37;10.50;40.50
20171;DHT22;10245;51.344;6.620;2023-04-03T14:49:20;10.20;41.40
20171;DHT22;10245;51.344;6.620;2023-04-03T14:51:44;10.10;40.70
20171;DHT22;10245;51.344;6.620;2023-04-03T14:54:13;10.70;40.60
20171;DHT22;10245;51.344;6.620;2023-04-03T14:56:37;10.10;40.30
20171;DHT22;10245;51.344;6.620;2023-04-03T14:59:01;10.80;42.90
20171;DHT22;10245;51.344;6.620;2023-04-03T15:01:25;11.00;40.60
20171;DHT22;10245;51.344;6.620;2023-04-03T15:03:50;10.20;40.80
20171;DHT22;10245;51.344;6.620;2023-04-03T15:06:14;10.10;42.20
20171;DHT22;10245;51.344;6.620;2023-04-03T15:08:38;10.00;40.20
20171;DHT22;10245;51.344;6.620;2023-04-03T15:11:03;10.20;43.10
20171;DHT22;10245;51.344;6.620;2023-04-03T15:13:28;10.60;40.10
20171;DHT22;10245;51.344;6.620;2023-04-03T15:15:51;10.00;40.40
20171;DHT22;10245;51.344;6.620;2023-04-03T15:18:17;10.10;43.00
20171;DHT22;10245;51.344;6.620;2023-04-03T15:20:45;10.50;41.40
20171;DHT22;10245;51.344;6.620;2023-04-03T15:23:10;10.80;41.50
20171;DHT22;10245;51.344;6.620;2023-04-03T15:25:36;11.00;42.60
20171;DHT22;10245;51.344;6.620;2023-04-03T15:27:59;10.60;43.00
20171;DHT22;10245;51.344;6.620;2023-04-03T15:30:23;10.20;40.70
20171;DHT22;10245;51.344;6.620;2023-04-03T15:32:47;10.00;42.20
20171;DHT22;10245;51.344;6.620;2023-04-03T15:35:11;9.50;41.10
20171;DHT22;10245;51.344;6.620;2023-04-03T15:37:36;10.00;40.70
20171;DHT22;10245;51.344;6.620;2023-04-03T15:39:59;10.00;40.90
20171;DHT22;10245;51.344;6.620;2023-04-03T15:42:23;10.20;39.60
20171;DHT22;10245;51.344;6.620;2023-04-03T15:44:46;10.60;43.90
20171;DHT22;10245;51.344;6.620;2023-04-03T15:47:11;10.00;40.30
20171;DHT22;10245;51.344;6.620;2023-04-03T15:49:35;9.90;41.40
20171;DHT22;10245;51.344;6.620;2023-04-03T15:51:59;9.90;40.80
20171;DHT22;10245;51.344;6.620;2023-04-03T15:54:24;9.50;40.80
20171;DHT22;10245;51.344;6.620;2023-04-03T15:56:47;9.50;41.20